Flight Track Log - Related Links

Times and Time Zones

All times are in EDT time to prevent confusion due to time zone crossing. See the N30LT flight status page for this flight to view local times or setup timezone preferences in your user account.

Time Position Orientation Groundspeed Altitude Reporting Facility
EDT Latitude Longitude Course Direction KTS MPH feet Rate Location/Type
Sat 11:58:44 AM 34.7008 -92.3119 247° West 153 176 1,000  Level Memphis Center
Sat 11:59:16 AM 34.7011 -92.3353 271° West 157 181 1,300 4,468 Climbing Memphis Center
Sat 12:00:18 PM 34.6986 -92.3894 267° West 157 181 8,000 3,242 Climbing Memphis Center
Sat 12:01:20 PM 34.6936 -92.4425 263° West 157 181 8,000  Level Memphis Center
Sat 12:02:22 PM 34.6644 -92.4844 230° Southwest 162 186 8,000  Level Memphis Center
Sat 12:03:00 PM 34.6150 -92.5533 239° Southwest  Level FlightAware Approximate
Sat 12:03:24 PM 34.6358 -92.5444 240° Southwest 172 198 8,000  Level Memphis Center
Sat 12:04:00 PM 34.5921 -92.6054 247° West  Level FlightAware Approximate
Sat 12:04:26 PM 34.6169 -92.6033 249° West 182 209 8,000  Level Memphis Center
Sat 12:05:28 PM 34.5972 -92.6575 246° West 182 209 8,000  Level Memphis Center
Sat 12:06:30 PM 34.5822 -92.7031 248° West 166 191 8,000  Level Memphis Center
Sat 12:07:32 PM 34.5681 -92.7436 247° West 140 161 8,000  Level Memphis Center
Sat 12:08:34 PM 34.5542 -92.7861 248° West 139 160 8,000  Level Memphis Center
Sat 12:09:36 PM 34.5364 -92.8364 247° West 138 159 8,000  Level Memphis Center
Sat 12:10:38 PM 34.5136 -92.8850 240° Southwest 153 176 8,000  Level Memphis Center
Sat 12:11:40 PM 34.5003 -92.9431 254° West 174 200 8,000  Level Memphis Center
Sat 12:12:42 PM 34.4806 -92.9986 247° West 175 201 8,000  Level Memphis Center
Sat 12:13:44 PM 34.4608 -93.0539 247° West 177 204 8,000  Level Memphis Center
Sat 12:14:46 PM 34.4419 -93.1064 246° West 176 203 8,000  Level Memphis Center
Sat 12:15:49 PM 34.4200 -93.1711 248° West 176 203 8,000  Level Memphis Center
Sat 12:16:51 PM 34.4011 -93.2258 247° West 176 203 8,000  Level Memphis Center
Sat 12:17:53 PM 34.3819 -93.2817 247° West 176 203 8,000  Level Memphis Center
Sat 12:18:55 PM 34.3617 -93.3347 245° Southwest 176 203 8,000  Level Memphis Center
Sat 12:19:57 PM 34.3417 -93.3883 246° West 201 231 8,000  Level Memphis Center
Sat 12:20:59 PM 34.3236 -93.4478 250° West 195 224 8,000  Level Memphis Center
Sat 12:22:01 PM 34.3003 -93.5117 246° West 182 209 8,000  Level Memphis Center
Sat 12:23:03 PM 34.2806 -93.5656 246° West 180 207 8,000  Level Memphis Center
Sat 12:24:05 PM 34.2608 -93.6206 247° West 180 207 8,000  Level Memphis Center
Sat 12:25:07 PM 34.2422 -93.6750 248° West 180 207 8,000  Level Memphis Center
Sat 12:26:09 PM 34.2222 -93.7306 246° West 180 207 8,000  Level Memphis Center
Sat 12:27:11 PM 34.2028 -93.7861 247° West 180 207 8,000  Level Memphis Center
Sat 12:28:13 PM 34.1786 -93.8531 246° West 180 207 8,000  Level Memphis Center
Sat 12:29:15 PM 34.1594 -93.9094 248° West 180 207 8,000  Level Memphis Center
Sat 12:30:16 PM 34.1392 -93.9658 247° West 180 207 8,000  Level Fort Worth Center
Sat 12:31:18 PM 34.1203 -94.0219 248° West 180 207 8,000  Level Fort Worth Center
Sat 12:32:20 PM 34.0997 -94.0769 246° West 180 207 8,000  Level Fort Worth Center
Sat 12:33:22 PM 34.0792 -94.1336 246° West 180 207 8,000  Level Fort Worth Center
Sat 12:34:24 PM 34.0558 -94.2017 248° West 182 209 8,000  Level Fort Worth Center
Sat 12:35:26 PM 34.0356 -94.2592 247° West 182 209 8,000  Level Fort Worth Center
Sat 12:36:28 PM 34.0147 -94.3150 246° West 183 211 8,000  Level Fort Worth Center
Sat 12:37:31 PM 33.9936 -94.3722 246° West 183 211 8,000  Level Fort Worth Center
Sat 12:38:33 PM 33.9728 -94.4289 246° West 184 212 8,000  Level Fort Worth Center
Sat 12:39:35 PM 33.9475 -94.4986 246° West 187 215 8,000  Level Fort Worth Center
Sat 12:40:37 PM 33.9269 -94.5567 247° West 187 215 8,000  Level Fort Worth Center
Sat 12:41:39 PM 33.9061 -94.6128 246° West 187 215 8,000  Level Fort Worth Center
Sat 12:42:41 PM 33.8856 -94.6717 247° West 188 216 8,000  Level Fort Worth Center
Sat 12:43:43 PM 33.8642 -94.7289 246° West 188 216 8,000  Level Fort Worth Center
Sat 12:44:46 PM 33.8394 -94.7983 247° West 188 216 8,000  Level Fort Worth Center
Sat 12:45:48 PM 33.8183 -94.8553 246° West 188 216 8,000  Level Fort Worth Center
Sat 12:46:50 PM 33.7958 -94.9136 245° Southwest 188 216 8,000  Level Fort Worth Center
Sat 12:47:52 PM 33.7736 -94.9714 245° Southwest 188 216 8,000  Level Fort Worth Center
Sat 12:48:54 PM 33.7544 -95.0278 248° West 188 216 8,000  Level Fort Worth Center
Sat 12:49:56 PM 33.7342 -95.0847 247° West 188 216 8,000  Level Fort Worth Center
Sat 12:50:59 PM 33.7089 -95.1528 246° West 188 216 8,000  Level Fort Worth Center
Sat 12:52:01 PM 33.6883 -95.2092 246° West 188 216 8,000  Level Fort Worth Center
Sat 12:53:03 PM 33.6667 -95.2656 245° Southwest 187 215 8,000  Level Fort Worth Center
Sat 12:54:05 PM 33.6458 -95.3208 246° West 185 213 8,000  Level Fort Worth Center
Sat 12:55:07 PM 33.6258 -95.3775 247° West 184 212 8,000  Level Fort Worth Center
Sat 12:56:09 PM 33.6022 -95.4442 247° West 184 212 8,000  Level Fort Worth Center
Sat 12:57:12 PM 33.5814 -95.4989 245° Southwest 183 211 8,000  Level Fort Worth Center
Sat 12:58:14 PM 33.5572 -95.5539 242° Southwest 183 211 8,000  Level Fort Worth Center
Sat 12:59:16 PM 33.5347 -95.6156 246° West 184 212 8,000  Level Fort Worth Center
Sat 01:00:18 PM 33.5119 -95.6756 246° West 183 211 8,000  Level Fort Worth Center
Sat 01:01:20 PM 33.4906 -95.7303 245° Southwest 184 212 8,000  Level Fort Worth Center
Sat 01:02:22 PM 33.4697 -95.7914 248° West 185 213 8,000  Level Fort Worth Center
Sat 01:03:25 PM 33.4472 -95.8467 244° Southwest 185 213 8,000  Level Fort Worth Center
Sat 01:04:27 PM 33.4269 -95.9022 246° West 185 213 8,000  Level Fort Worth Center
Sat 01:05:29 PM 33.4042 -95.9619 245° Southwest 184 212 8,000  Level Fort Worth Center
Sat 01:06:31 PM 33.3825 -96.0167 245° Southwest 182 209 8,000  Level Fort Worth Center
Sat 01:07:33 PM 33.3583 -96.0808 246° West 199 229 8,000  Level Fort Worth Center
Sat 01:08:36 PM 33.3339 -96.1442 245° Southwest 206 237 8,000  Level Fort Worth Center
Sat 01:09:38 PM 33.3081 -96.2128 246° West 213 245 8,000  Level Fort Worth Center
Sat 01:10:40 PM 33.2864 -96.2686 245° Southwest 188 216 8,000  Level Fort Worth Center
Sat 01:11:42 PM 33.2650 -96.3250 246° West 178 205 8,000  Level Fort Worth Center
Sat 01:12:44 PM 33.2364 -96.3742 235° Southwest 181 208 8,000  Level Fort Worth Center
Sat 01:13:46 PM 33.2111 -96.4369 244° Southwest 193 222 8,000  Level Fort Worth Center
Sat 01:14:48 PM 33.1914 -96.4853 244° Southwest 166 191 8,000  Level Fort Worth Center
Sat 01:15:51 PM 33.1700 -96.5375 244° Southwest 163 188 8,000  Level Fort Worth Center
Sat 01:16:53 PM 33.1497 -96.5881 244° Southwest 167 192 8,000  Level Fort Worth Center
Sat 01:17:55 PM 33.1294 -96.6381 244° Southwest 157 181 8,000  Level Fort Worth Center
Sat 01:18:57 PM 33.1128 -96.6792 244° Southwest 140 161 8,000  Level Fort Worth Center
Sat 01:19:59 PM 33.1042 -96.7339 259° West 155 178 8,000  Level Fort Worth Center
Sat 01:21:01 PM 33.0964 -96.7822 259° West 152 175 8,000  Level Fort Worth Center
Sat 01:22:04 PM 33.0994 -96.8283 275° West 135 155 8,000  Level Fort Worth Center
Sat 01:23:06 PM 33.1081 -96.8614 287° West 109 125 8,000  Level Fort Worth Center
Sat 01:24:08 PM 33.0750 -96.8592 177° South 110 127 8,000  Level Fort Worth Center
Sat 01:25:10 PM 33.0461 -96.8581 178° South 108 124 8,000  Level Fort Worth Center
Sat 01:26:12 PM 33.0133 -96.8539 174° South 108 124 8,000  Level Fort Worth Center
Sat 01:27:14 PM 32.9844 -96.8425 162° South 109 125 8,000  Level Fort Worth Center

Login

Don't have an account? Register now (free) for customized features, flight alerts, and more!